createdAt,value
2023-05-22T00:00:18.216Z,1.04
2023-05-22T00:01:18.359Z,1.04
2023-05-22T00:02:18.561Z,1.04
2023-05-22T00:03:18.706Z,1.04
2023-05-22T00:04:18.805Z,1.04
2023-05-22T00:05:19.022Z,1.04
2023-05-22T00:06:19.058Z,1.04
2023-05-22T00:07:19.239Z,1.04
2023-05-22T00:08:19.374Z,1.04
2023-05-22T00:09:19.543Z,1.04
2023-05-22T00:10:19.647Z,1.04
2023-05-22T00:11:19.777Z,1.04
2023-05-22T00:12:19.928Z,1.04
2023-05-22T00:13:20.034Z,1.04
2023-05-22T00:14:20.177Z,1.04
2023-05-22T00:15:20.277Z,1.04
2023-05-22T00:16:20.423Z,1.04
2023-05-22T00:17:20.691Z,1.04
2023-05-22T00:18:20.681Z,1.04
2023-05-22T00:19:20.843Z,1.04
2023-05-22T00:20:20.989Z,1.04
2023-05-22T00:21:21.144Z,1.04
2023-05-22T00:22:21.260Z,1.04
2023-05-22T00:23:21.408Z,1.04
2023-05-22T00:24:21.563Z,1.04
2023-05-22T00:25:21.718Z,1.04
2023-05-22T00:26:21.861Z,1.04
2023-05-22T00:27:22.005Z,1.04
2023-05-22T00:28:22.151Z,1.04
2023-05-22T00:29:22.323Z,1.04
2023-05-22T00:30:22.454Z,1.04
2023-05-22T00:31:22.614Z,1.04
2023-05-22T00:32:22.853Z,1.04
2023-05-22T00:33:22.911Z,1.04
2023-05-22T00:34:23.155Z,1.04
2023-05-22T00:35:23.226Z,1.04
2023-05-22T00:36:23.369Z,1.04
2023-05-22T00:37:23.528Z,1.04
2023-05-22T00:38:23.679Z,1.04
2023-05-22T00:39:23.836Z,1.04
2023-05-22T00:40:23.970Z,1.04
2023-05-22T00:41:24.144Z,1.04
2023-05-22T00:42:24.347Z,1.04
2023-05-22T00:43:24.436Z,1.04
2023-05-22T00:44:24.557Z,1.04
2023-05-22T00:45:24.697Z,1.04
2023-05-22T00:46:24.814Z,1.04
2023-05-22T00:47:24.963Z,1.04
2023-05-22T00:48:25.092Z,1.04
2023-05-22T00:49:25.229Z,1.04
2023-05-22T00:50:25.433Z,1.04
2023-05-22T00:51:25.562Z,1.04
2023-05-22T00:52:25.709Z,1.04
2023-05-22T00:53:25.946Z,1.04
2023-05-22T00:54:26.031Z,1.04
2023-05-22T00:55:26.158Z,1.04
2023-05-22T00:56:26.297Z,1.04
2023-05-22T00:57:26.464Z,1.04
2023-05-22T00:58:26.695Z,1.04
2023-05-22T00:59:26.777Z,1.04
2023-05-22T01:00:26.919Z,1.04
2023-05-22T01:01:27.090Z,1.04
2023-05-22T01:02:27.222Z,1.04
2023-05-22T01:03:27.739Z,1.04
2023-05-22T01:04:27.536Z,1.04
2023-05-22T01:05:27.668Z,1.04
2023-05-22T01:06:27.822Z,1.04
2023-05-22T01:07:27.972Z,1.04
2023-05-22T01:08:28.120Z,1.04
2023-05-22T01:09:28.279Z,1.04
2023-05-22T01:10:28.397Z,1.04
2023-05-22T01:11:28.528Z,1.04
2023-05-22T01:12:28.675Z,1.04
2023-05-22T01:13:28.847Z,1.04
2023-05-22T01:14:28.999Z,1.04
2023-05-22T01:15:29.103Z,1.04
2023-05-22T01:16:29.263Z,1.04
2023-05-22T01:17:29.391Z,1.04
2023-05-22T01:18:29.562Z,1.04
2023-05-22T01:19:29.809Z,1.04
2023-05-22T01:20:29.797Z,1.04
2023-05-22T01:21:29.953Z,1.04
2023-05-22T01:22:30.084Z,1.04
2023-05-22T01:23:30.248Z,1.04
2023-05-22T01:24:30.360Z,1.04
2023-05-22T01:25:30.505Z,1.04
2023-05-22T01:26:30.663Z,1.04
2023-05-22T01:27:30.806Z,1.04
2023-05-22T01:28:30.999Z,1.04
2023-05-22T01:29:31.118Z,1.04
2023-05-22T01:30:31.255Z,1.04
2023-05-22T01:31:31.386Z,1.04
2023-05-22T01:32:31.586Z,1.04
2023-05-22T01:33:31.703Z,1.04
2023-05-22T01:34:31.780Z,1.04
2023-05-22T01:35:31.927Z,1.04
2023-05-22T01:36:32.077Z,1.04
2023-05-22T01:37:32.223Z,1.04
2023-05-22T01:38:32.379Z,1.04
2023-05-22T01:39:32.534Z,1.04
2023-05-22T01:40:32.672Z,1.04
2023-05-22T01:41:32.831Z,1.04
2023-05-22T01:42:32.938Z,1.04
2023-05-22T01:43:33.084Z,1.04
2023-05-22T01:44:33.231Z,1.04
2023-05-22T01:45:33.410Z,1.04
2023-05-22T01:46:34.090Z,1.04
2023-05-22T01:48:34.196Z,1.04
2023-05-22T01:49:33.972Z,1.04
2023-05-22T01:50:34.112Z,1.04
2023-05-22T01:51:34.736Z,1.04
2023-05-22T01:53:34.452Z,1.04
2023-05-22T01:54:34.628Z,1.04
2023-05-22T01:55:34.764Z,1.04
2023-05-22T01:56:34.901Z,1.04
2023-05-22T01:57:35.017Z,1.04
2023-05-22T01:58:35.170Z,1.04
2023-05-22T01:59:35.316Z,1.04
2023-05-22T02:00:35.472Z,1.04
2023-05-22T02:01:35.625Z,1.04
2023-05-22T02:02:35.874Z,1.04
2023-05-22T02:03:35.997Z,1.04
2023-05-22T02:04:36.092Z,1.04
2023-05-22T02:05:36.234Z,1.04
2023-05-22T02:06:36.333Z,1.04
2023-05-22T02:07:36.538Z,1.04
2023-05-22T02:08:36.637Z,1.04
2023-05-22T02:09:36.790Z,1.04
2023-05-22T02:10:36.982Z,1.04
2023-05-22T02:11:37.098Z,1.04
2023-05-22T02:12:37.242Z,1.04
2023-05-22T02:13:37.405Z,1.04
2023-05-22T02:14:37.540Z,1.04
2023-05-22T02:15:37.764Z,1.04
2023-05-22T02:16:37.800Z,1.04
2023-05-22T02:17:37.947Z,1.04
2023-05-22T02:18:38.117Z,1.04
2023-05-22T02:19:38.304Z,1.04
2023-05-22T02:20:38.670Z,1.04
2023-05-22T02:21:38.578Z,1.04
2023-05-22T02:22:38.728Z,1.04
2023-05-22T02:23:38.873Z,1.04
2023-05-22T02:24:38.975Z,1.04
2023-05-22T02:25:39.112Z,2
2023-05-22T02:26:39.262Z,2
2023-05-22T02:27:39.424Z,2
2023-05-22T02:28:39.575Z,2
2023-05-22T02:29:39.737Z,2
2023-05-22T02:30:40.066Z,2
2023-05-22T02:31:40.107Z,3.04
2023-05-22T02:32:40.200Z,3.04
2023-05-22T02:33:40.294Z,3.04
2023-05-22T02:34:40.441Z,4
2023-05-22T02:35:40.599Z,4
2023-05-22T02:36:40.684Z,5.04
2023-05-22T02:37:40.832Z,6
2023-05-22T02:38:40.928Z,6
2023-05-22T02:39:41.033Z,7.04
2023-05-22T02:40:41.438Z,8
2023-05-22T02:41:41.335Z,9.04
2023-05-22T02:42:41.495Z,11.04
2023-05-22T02:43:41.642Z,12
2023-05-22T02:44:41.739Z,14
2023-05-22T02:45:41.886Z,16
2023-05-22T02:46:42.079Z,18
2023-05-22T02:47:42.211Z,21.04
2023-05-22T02:48:42.339Z,24
2023-05-22T02:49:42.519Z,27.04
2023-05-22T02:50:42.651Z,32
2023-05-22T02:51:42.812Z,36
2023-05-22T02:52:42.967Z,41.04
2023-05-22T02:53:43.119Z,47.04
2023-05-22T02:54:43.287Z,53.04
2023-05-22T02:55:43.372Z,58
2023-05-22T02:56:43.589Z,66
2023-05-22T02:57:43.665Z,74
2023-05-22T02:58:43.764Z,81.04
2023-05-22T02:59:43.926Z,91.04
2023-05-22T03:00:44.062Z,103.04
2023-05-22T03:01:44.266Z,115.04
2023-05-22T03:02:44.484Z,125.04
2023-05-22T03:03:44.625Z,136
2023-05-22T03:04:44.692Z,151.04
2023-05-22T03:05:44.830Z,163.04
2023-05-22T03:06:44.952Z,180
2023-05-22T03:07:47.545Z,195.04
2023-05-22T03:08:45.247Z,210.08
2023-05-22T03:09:45.340Z,225.12
2023-05-22T03:10:45.521Z,246.08
2023-05-22T03:11:45.648Z,262.08
2023-05-22T03:12:45.808Z,282.08
2023-05-22T03:13:45.964Z,307.04
2023-05-22T03:14:46.107Z,330.24
2023-05-22T03:15:46.249Z,361.28
2023-05-22T03:16:46.369Z,387.2
2023-05-22T03:17:46.544Z,417.28
2023-05-22T03:18:46.661Z,444.16
2023-05-22T03:19:46.816Z,485.12
2023-05-22T03:20:46.960Z,516.16
2023-05-22T03:21:47.107Z,552
2023-05-22T03:22:47.254Z,597.12
2023-05-22T03:23:47.390Z,637.12
2023-05-22T03:24:47.519Z,677.12
2023-05-22T03:25:47.674Z,721.28
2023-05-22T03:26:47.774Z,763.52
2023-05-22T03:27:47.935Z,812.16
2023-05-22T03:28:48.082Z,873.6
2023-05-22T03:29:48.257Z,919.04
2023-05-22T03:30:48.390Z,971.52
2023-05-22T03:31:48.475Z,1022.08
2023-05-22T03:32:48.700Z,1070.08
2023-05-22T03:33:48.841Z,1129.6
2023-05-22T03:34:48.935Z,1178.24
2023-05-22T03:35:49.053Z,1221.12
2023-05-22T03:36:49.203Z,1264
2023-05-22T03:37:49.334Z,1288.32
2023-05-22T03:38:49.466Z,1427.2
2023-05-22T03:39:49.591Z,1473.28
2023-05-22T03:40:49.752Z,1530.88
2023-05-22T03:41:49.938Z,1605.12
2023-05-22T03:42:50.062Z,1657.6
2023-05-22T03:43:50.204Z,1696
2023-05-22T03:44:50.351Z,1751.04
2023-05-22T03:45:50.554Z,1786.88
2023-05-22T03:46:50.625Z,1839.36
2023-05-22T03:47:50.784Z,1888
2023-05-22T03:48:50.928Z,1934.08
2023-05-22T03:49:51.057Z,1994.24
2023-05-22T03:50:51.214Z,2062.08
2023-05-22T03:51:51.373Z,2123.52
2023-05-22T03:52:51.516Z,2214.4
2023-05-22T03:53:51.630Z,2268.16
2023-05-22T03:54:51.780Z,2341.12
2023-05-22T03:55:51.913Z,2402.56
2023-05-22T03:56:52.020Z,2460.16
2023-05-22T03:57:52.174Z,2538.24
2023-05-22T03:58:52.338Z,2597.12
2023-05-22T03:59:52.475Z,2654.72
2023-05-22T04:00:52.638Z,2718.72
2023-05-22T04:01:52.783Z,2792.96
2023-05-22T04:02:52.969Z,2851.84
2023-05-22T04:03:53.093Z,2933.76
2023-05-22T04:04:53.253Z,2995.2
2023-05-22T04:05:53.452Z,3059.2
2023-05-22T04:06:53.553Z,3136
2023-05-22T04:07:53.661Z,3200
2023-05-22T04:08:53.798Z,3261.44
2023-05-22T04:09:53.945Z,3325.44
2023-05-22T04:10:54.087Z,3381.76
2023-05-22T04:11:54.177Z,3461.12
2023-05-22T04:12:54.328Z,3530.24
2023-05-22T04:13:54.489Z,3607.04
2023-05-22T04:14:54.588Z,3650.56
2023-05-22T04:15:54.759Z,3699.2
2023-05-22T04:16:54.890Z,3735.04
2023-05-22T04:17:55.063Z,3791.36
2023-05-22T04:18:55.152Z,3834.88
2023-05-22T04:19:55.328Z,3906.56
2023-05-22T04:20:55.447Z,3983.36
2023-05-22T04:21:55.597Z,4060.16
2023-05-22T04:22:55.748Z,4157.44
2023-05-22T04:23:56.080Z,4234.24
2023-05-22T04:24:56.243Z,4298.24
2023-05-22T04:25:56.379Z,4380.16
2023-05-22T04:26:56.523Z,4426.24
2023-05-22T04:27:56.684Z,4515.84
2023-05-22T04:28:56.825Z,4592.64
2023-05-22T04:29:56.994Z,4677.12
2023-05-22T04:30:57.151Z,4738.56
2023-05-22T04:31:57.297Z,4784.64
2023-05-22T04:32:57.468Z,4838.4
2023-05-22T04:33:57.609Z,4915.2
2023-05-22T04:34:57.744Z,5009.92
2023-05-22T04:35:57.900Z,5094.4
2023-05-22T04:36:58.035Z,5199.36
2023-05-22T04:37:58.206Z,5345.28
2023-05-22T04:38:58.348Z,5473.28
2023-05-22T04:39:58.535Z,5585.92
2023-05-22T04:40:58.668Z,5775.36
2023-05-22T04:41:58.820Z,5954.56
2023-05-22T04:42:58.935Z,6113.28
2023-05-22T04:43:59.075Z,6323.2
2023-05-22T04:44:59.211Z,6461.44
2023-05-22T04:45:59.275Z,6589.44
2023-05-22T04:46:59.554Z,6707.2
2023-05-22T04:47:59.617Z,6804.48
2023-05-22T04:48:59.627Z,6886.4
2023-05-22T04:49:59.758Z,7009.28
2023-05-22T04:50:59.882Z,7116.8
2023-05-22T04:52:00.038Z,7260.16
2023-05-22T04:53:00.171Z,7495.68
2023-05-22T04:54:00.326Z,7680
2023-05-22T04:55:01.196Z,7854.08
2023-05-22T04:56:00.642Z,7992.32
2023-05-22T04:57:00.784Z,8125.44
2023-05-22T04:58:00.890Z,8396.8
2023-05-22T04:59:01.045Z,8616.96
2023-05-22T05:00:01.217Z,8816.64
2023-05-22T05:01:01.391Z,9072.64
2023-05-22T05:02:01.439Z,9313.28
2023-05-22T05:03:01.712Z,9502.72
2023-05-22T05:04:01.767Z,9728
2023-05-22T05:05:01.918Z,9953.279
2023-05-22T05:06:02.065Z,10188.8
2023-05-22T05:07:02.219Z,10275.84
2023-05-22T05:08:02.344Z,10475.52
2023-05-22T05:09:02.501Z,10803.2
2023-05-22T05:10:02.604Z,11018.24
2023-05-22T05:11:02.784Z,11202.56
2023-05-22T05:12:02.917Z,11356.16
2023-05-22T05:13:03.068Z,11560.96
2023-05-22T05:14:03.228Z,11806.72
2023-05-22T05:15:03.365Z,12062.72
2023-05-22T05:16:03.516Z,12226.56
2023-05-22T05:17:03.723Z,12380.16
2023-05-22T05:18:03.794Z,12574.72
2023-05-22T05:19:04.015Z,12738.56
2023-05-22T05:20:04.097Z,12902.399
2023-05-22T05:21:04.164Z,12974.08
2023-05-22T05:22:04.341Z,14233.6
2023-05-22T05:23:04.475Z,14499.84
2023-05-22T05:24:04.583Z,14694.399
2023-05-22T05:25:04.763Z,14919.68
2023-05-22T05:26:04.913Z,15175.68
2023-05-22T05:27:04.991Z,15411.199
2023-05-22T05:28:05.118Z,15656.96
2023-05-22T05:29:05.230Z,16046.08
2023-05-22T05:30:05.391Z,16322.56
2023-05-22T05:31:05.557Z,16629.76
2023-05-22T05:32:05.728Z,16855.04
2023-05-22T05:33:05.875Z,17029.12
2023-05-22T05:34:05.949Z,17029.12
2023-05-22T05:35:06.112Z,16670.72
2023-05-22T05:36:06.251Z,16629.76
2023-05-22T05:37:06.423Z,17049.6
2023-05-22T05:38:06.516Z,17162.24
2023-05-22T05:39:06.664Z,17940.48
2023-05-22T05:40:06.961Z,18872.32
2023-05-22T05:41:06.927Z,19343.36
2023-05-22T05:42:07.065Z,19742.72
2023-05-22T05:43:08.530Z,20316.16
2023-05-22T05:44:07.369Z,20776.96
2023-05-22T05:45:07.526Z,21155.84
2023-05-22T05:46:07.772Z,21483.52
2023-05-22T05:47:07.825Z,21770.24
2023-05-22T05:48:08.042Z,22220.8
2023-05-22T05:49:08.074Z,22507.52
2023-05-22T05:50:08.196Z,22917.12
2023-05-22T05:51:08.327Z,23388.16
2023-05-22T05:52:08.496Z,23367.68
2023-05-22T05:53:08.638Z,23941.12
2023-05-22T05:54:08.793Z,23920.64
2023-05-22T05:55:08.889Z,24596.48
2023-05-22T05:56:09.035Z,24760.32
2023-05-22T05:57:09.200Z,25026.56
2023-05-22T05:58:09.342Z,25600
2023-05-22T05:59:09.453Z,26091.52
2023-05-22T06:00:09.586Z,26562.56
2023-05-22T06:01:09.749Z,26869.76
2023-05-22T06:02:09.876Z,26890.24
2023-05-22T06:03:10.091Z,26951.68
2023-05-22T06:04:10.118Z,27054.08
2023-05-22T06:05:10.307Z,26931.2
2023-05-22T06:06:10.422Z,24760.32
2023-05-22T06:07:10.568Z,25067.52
2023-05-22T06:08:10.736Z,26378.24
2023-05-22T06:09:10.897Z,27361.28
2023-05-22T06:10:10.997Z,27668.48
2023-05-22T06:11:11.112Z,27811.84
2023-05-22T06:12:11.229Z,28098.56
2023-05-22T06:13:11.382Z,27525.12
2023-05-22T06:14:11.524Z,27443.2
2023-05-22T06:15:11.700Z,27688.96
2023-05-22T06:16:11.835Z,27668.48
2023-05-22T06:17:11.972Z,28958.72
2023-05-22T06:18:12.093Z,28856.32
2023-05-22T06:19:12.223Z,29941.76
2023-05-22T06:20:12.374Z,28508.16
2023-05-22T06:21:12.534Z,28672
2023-05-22T06:22:12.697Z,32030.72
2023-05-22T06:23:12.860Z,32378.88
2023-05-22T06:24:12.939Z,30699.52
2023-05-22T06:25:13.090Z,30023.68
2023-05-22T06:26:13.211Z,30535.68
2023-05-22T06:27:13.296Z,30986.24
2023-05-22T06:28:13.399Z,31211.52
2023-05-22T06:29:13.547Z,33136.64
2023-05-22T06:30:13.703Z,35061.76
2023-05-22T06:31:13.858Z,36290.56
2023-05-22T06:32:14.027Z,37847.04
2023-05-22T06:33:14.154Z,39055.36
2023-05-22T06:34:14.306Z,39628.8
2023-05-22T06:35:14.425Z,39936
2023-05-22T06:36:14.531Z,39464.96
2023-05-22T06:37:14.659Z,37539.84
2023-05-22T06:38:14.765Z,39034.88
2023-05-22T06:39:14.986Z,40058.88
2023-05-22T06:40:15.071Z,41000.96
2023-05-22T06:41:15.213Z,38338.56
2023-05-22T06:42:15.377Z,37744.64
2023-05-22T06:43:15.527Z,40284.16
2023-05-22T06:44:15.686Z,38748.16
2023-05-22T06:45:15.836Z,41226.24
2023-05-22T06:46:16.030Z,45752.32
2023-05-22T06:47:16.164Z,45547.52
2023-05-22T06:48:16.256Z,45506.56
2023-05-22T06:49:16.374Z,41246.72
2023-05-22T06:50:16.539Z,42311.68
2023-05-22T06:51:16.686Z,42680.32
2023-05-22T06:52:16.790Z,43909.12
2023-05-22T06:53:16.961Z,46571.52
2023-05-22T06:54:17.094Z,47759.36
2023-05-22T06:55:17.236Z,49725.44
2023-05-22T06:56:17.395Z,49029.12
2023-05-22T06:57:17.547Z,51363.84
2023-05-22T06:58:17.714Z,53534.72
2023-05-22T06:59:17.871Z,53248
2023-05-22T07:00:19.647Z,55992.32
2023-05-22T07:01:18.215Z,53862.4
2023-05-22T07:02:18.317Z,52838.4
2023-05-22T07:03:18.462Z,52142.08
2023-05-22T07:04:18.625Z,55582.72
2023-05-22T07:05:18.756Z,52674.56
2023-05-22T07:06:18.894Z,53411.84
2023-05-22T07:07:19.028Z,58859.52
2023-05-22T07:08:19.154Z,59105.28
2023-05-22T07:09:19.345Z,58613.76
2023-05-22T07:10:19.546Z,60006.4
2023-05-22T07:11:19.669Z,56770.56
2023-05-22T07:12:19.785Z,54886.4
2023-05-22T07:13:19.924Z,55828.48
2023-05-22T07:14:20.090Z,53739.52
2023-05-22T07:15:20.232Z,52346.88
2023-05-22T07:16:20.379Z,51732.48
2023-05-22T07:17:20.559Z,53207.04
2023-05-22T07:18:20.648Z,56606.72
2023-05-22T07:19:20.856Z,56442.88
2023-05-22T07:20:20.895Z,55992.32
2023-05-22T07:21:21.037Z,56197.12
2023-05-22T07:22:21.208Z,52797.44
2023-05-22T07:23:21.364Z,52879.36
2023-05-22T07:24:21.525Z,49602.56
2023-05-22T07:25:21.646Z,47595.52
2023-05-22T07:26:21.798Z,47104
2023-05-22T07:27:21.901Z,47308.8
2023-05-22T07:28:22.073Z,45015.04
2023-05-22T07:29:23.251Z,43130.88
2023-05-22T07:30:22.312Z,45588.48
2023-05-22T07:31:22.531Z,47022.08
2023-05-22T07:32:22.711Z,49438.72
2023-05-22T07:33:22.721Z,51855.36
2023-05-22T07:34:22.858Z,54886.4
2023-05-22T07:35:22.983Z,56442.88
2023-05-22T07:36:23.123Z,57589.76
2023-05-22T07:37:23.294Z,57098.24
2023-05-22T07:38:23.373Z,55214.08
2023-05-22T07:39:23.526Z,58122.24
2023-05-22T07:40:24.476Z,55746.56
2023-05-22T07:41:23.794Z,60497.92
2023-05-22T07:42:23.936Z,54108.16
2023-05-22T07:43:24.068Z,54886.4
2023-05-22T07:44:24.199Z,56565.76
2023-05-22T07:45:24.350Z,58982.4
2023-05-22T07:46:24.512Z,67993.6
2023-05-22T07:47:24.668Z,71434.24
2023-05-22T07:48:24.791Z,74670.08
2023-05-22T07:49:24.923Z,77086.72
2023-05-22T07:50:25.253Z,78151.68
2023-05-22T07:51:25.276Z,80732.16
2023-05-22T07:52:25.408Z,81018.88
2023-05-22T07:53:25.552Z,80609.28
2023-05-22T07:54:25.773Z,78929.92
2023-05-22T07:55:25.856Z,81510.4
2023-05-22T07:56:26.648Z,83763.2
2023-05-22T07:58:26.719Z,87490.55
2023-05-22T07:59:26.473Z,88801.28
2023-05-22T08:00:27.106Z,90193.92
2023-05-22T08:02:27.446Z,90357.76
2023-05-22T08:04:27.835Z,91586.55
2023-05-22T08:05:27.636Z,93143.04
2023-05-22T08:06:27.718Z,93716.48
2023-05-22T08:07:27.554Z,94044.16
2023-05-22T08:08:28.867Z,94945.28
2023-05-22T08:09:27.851Z,96174.08
2023-05-22T08:10:30.210Z,97320.96
2023-05-22T08:11:28.149Z,98713.6
2023-05-22T08:12:28.301Z,99860.48
2023-05-22T08:13:28.375Z,100188.16
2023-05-22T08:14:28.468Z,100761.6
2023-05-22T08:15:28.571Z,100188.16
2023-05-22T08:16:28.698Z,99860.48
2023-05-22T08:17:28.839Z,100352
2023-05-22T08:18:29.373Z,97812.48
2023-05-22T08:19:29.191Z,97648.64
2023-05-22T08:20:29.333Z,96993.28
2023-05-22T08:21:29.454Z,93716.48
2023-05-22T08:22:29.582Z,96747.52
2023-05-22T08:23:29.802Z,96092.16
2023-05-22T08:24:29.897Z,96256
2023-05-22T08:25:30.066Z,95272.96
2023-05-22T08:26:32.185Z,92651.52
2023-05-22T08:27:30.362Z,90275.84
2023-05-22T08:28:30.485Z,88637.44
2023-05-22T08:29:30.603Z,77291.52
2023-05-22T08:30:30.746Z,61767.68
2023-05-22T08:31:30.995Z,50012.16
2023-05-22T08:32:31.472Z,55828.48
2023-05-22T08:33:31.127Z,57876.48
2023-05-22T08:34:31.281Z,53698.56
2023-05-22T08:35:31.423Z,54190.08
2023-05-22T08:36:31.561Z,54476.8
2023-05-22T08:37:31.638Z,51200
2023-05-22T08:38:31.778Z,48414.72
2023-05-22T08:39:31.911Z,45219.84
2023-05-22T08:40:32.065Z,47349.76
2023-05-22T08:41:32.240Z,50339.84
2023-05-22T08:42:32.392Z,51322.88
2023-05-22T08:43:32.520Z,54435.84
2023-05-22T08:44:32.633Z,57548.8
2023-05-22T08:45:32.785Z,61030.4
2023-05-22T08:46:32.968Z,61071.36
2023-05-22T08:47:33.127Z,62504.96
2023-05-22T08:48:33.240Z,59392
2023-05-22T08:49:33.361Z,58490.88
2023-05-22T08:50:33.500Z,54681.6
2023-05-22T08:51:33.640Z,56565.76
2023-05-22T08:52:33.801Z,57425.92
2023-05-22T08:53:34.008Z,56893.44
2023-05-22T08:54:34.129Z,55951.36
2023-05-22T08:55:34.257Z,57466.88
2023-05-22T08:56:37.359Z,58286.08
2023-05-22T08:57:34.554Z,58859.52
2023-05-22T08:58:34.731Z,60334.08
2023-05-22T08:59:34.853Z,60907.52
2023-05-22T09:00:35.016Z,63856.64
2023-05-22T09:01:35.154Z,66887.68
2023-05-22T09:02:35.345Z,61931.52
2023-05-22T09:03:35.414Z,58818.56
2023-05-22T09:04:35.596Z,58941.44
2023-05-22T09:05:35.717Z,59146.24
2023-05-22T09:06:35.882Z,56197.12
2023-05-22T09:07:35.982Z,50954.24
2023-05-22T09:08:36.144Z,47882.24
2023-05-22T09:09:36.298Z,50135.04
2023-05-22T09:10:36.430Z,48988.16
2023-05-22T09:11:36.584Z,48783.36
2023-05-22T09:12:36.739Z,44441.6
2023-05-22T09:13:36.903Z,43745.28
2023-05-22T09:14:37.009Z,41410.56
2023-05-22T09:15:37.098Z,39321.6
2023-05-22T09:16:37.205Z,38563.84
2023-05-22T09:17:37.343Z,39485.44
2023-05-22T09:18:37.471Z,38666.24
2023-05-22T09:19:37.795Z,39649.28
2023-05-22T09:20:38.333Z,42188.8
2023-05-22T09:21:37.901Z,46202.88
2023-05-22T09:22:38.054Z,48988.16
2023-05-22T09:23:38.218Z,50257.92
2023-05-22T09:24:38.360Z,53575.68
2023-05-22T09:25:38.514Z,56975.36
2023-05-22T09:26:38.656Z,59883.52
2023-05-22T09:27:38.819Z,64921.6
2023-05-22T09:28:38.970Z,66191.36
2023-05-22T09:29:39.121Z,67174.4
2023-05-22T09:30:39.621Z,67461.12
2023-05-22T09:31:39.494Z,65454.08
2023-05-22T09:32:39.553Z,60784.64
2023-05-22T09:33:39.704Z,61317.12
2023-05-22T09:34:39.842Z,63856.64
2023-05-22T09:35:39.976Z,64061.44
2023-05-22T09:36:40.156Z,64471.04
2023-05-22T09:37:40.282Z,58204.16
2023-05-22T09:38:40.390Z,61358.08
2023-05-22T09:39:40.496Z,63201.28
2023-05-22T09:40:40.731Z,66682.88
2023-05-22T09:41:40.788Z,69058.56
2023-05-22T09:42:40.953Z,71598.08
2023-05-22T09:43:41.097Z,75653.12
2023-05-22T09:44:41.251Z,73441.28
2023-05-22T09:45:41.353Z,67174.4
2023-05-22T09:46:41.869Z,68812.8
2023-05-22T09:47:41.628Z,71925.76
2023-05-22T09:48:41.757Z,72704
2023-05-22T09:49:41.911Z,66273.28
2023-05-22T09:50:42.040Z,62300.16
2023-05-22T09:51:42.153Z,62177.28
2023-05-22T09:52:42.263Z,62300.16
2023-05-22T09:53:42.571Z,62177.28
2023-05-22T09:54:42.729Z,62627.84
2023-05-22T09:55:42.864Z,56770.56
2023-05-22T09:56:43.118Z,61603.84
2023-05-22T09:57:43.161Z,62218.24
2023-05-22T09:58:43.337Z,66027.52
2023-05-22T09:59:43.481Z,66887.68
2023-05-22T10:00:43.626Z,66560
2023-05-22T10:01:43.806Z,63447.04
2023-05-22T10:02:43.960Z,61931.52
2023-05-22T10:03:44.110Z,60620.8
2023-05-22T10:04:44.287Z,61726.72
2023-05-22T10:05:44.335Z,57221.12
2023-05-22T10:06:44.497Z,57835.52
2023-05-22T10:07:44.640Z,55910.4
2023-05-22T10:08:44.800Z,57548.8
2023-05-22T10:09:44.941Z,58245.12
2023-05-22T10:10:45.092Z,56811.52
2023-05-22T10:11:45.205Z,55132.16
2023-05-22T10:12:45.322Z,55746.56
2023-05-22T10:13:45.465Z,53739.52
2023-05-22T10:14:45.651Z,51978.24
2023-05-22T10:15:45.830Z,51240.96
2023-05-22T10:16:45.919Z,53903.36
2023-05-22T10:17:46.081Z,54394.88
2023-05-22T10:18:46.327Z,54845.44
2023-05-22T10:19:46.985Z,55377.92
2023-05-22T10:20:46.522Z,55336.96
2023-05-22T10:21:46.665Z,56565.76
2023-05-22T10:22:46.811Z,56442.88
2023-05-22T10:23:46.957Z,54517.76
2023-05-22T10:24:47.110Z,52920.32
2023-05-22T10:25:47.300Z,54149.12
2023-05-22T10:26:47.434Z,54067.2
2023-05-22T10:27:47.570Z,54640.64
2023-05-22T10:28:47.697Z,59719.68
2023-05-22T10:29:47.833Z,61890.56
2023-05-22T10:30:47.987Z,64225.28
2023-05-22T10:31:48.144Z,64552.96
2023-05-22T10:32:48.344Z,59842.56
2023-05-22T10:33:48.486Z,59473.92
2023-05-22T10:34:48.587Z,56770.56
2023-05-22T10:35:48.767Z,55009.28
2023-05-22T10:36:48.887Z,59064.32
2023-05-22T10:37:48.992Z,61890.56
2023-05-22T10:38:49.140Z,59351.04
2023-05-22T10:39:49.282Z,59228.16
2023-05-22T10:40:49.436Z,59555.84
2023-05-22T10:41:49.597Z,57139.2
2023-05-22T10:42:49.758Z,57835.52
2023-05-22T10:43:49.908Z,59473.92
2023-05-22T10:44:50.067Z,59637.76
2023-05-22T10:45:50.256Z,60006.4
2023-05-22T10:46:50.306Z,63856.64
2023-05-22T10:47:50.565Z,68648.96
2023-05-22T10:48:50.560Z,65372.16
2023-05-22T10:49:50.745Z,69222.4
2023-05-22T10:50:50.804Z,76922.88
2023-05-22T10:51:50.966Z,80076.8
2023-05-22T10:52:51.120Z,83066.88
2023-05-22T10:53:51.265Z,82042.88
2023-05-22T10:54:51.412Z,83968
2023-05-22T10:55:51.594Z,84459.52
2023-05-22T10:56:51.723Z,84787.2
2023-05-22T10:57:51.866Z,84705.28
2023-05-22T10:58:52.034Z,82780.16
2023-05-22T10:59:52.169Z,83722.24
2023-05-22T11:00:52.274Z,85196.8
2023-05-22T11:01:52.439Z,87572.48
2023-05-22T11:02:52.611Z,90603.52
2023-05-22T11:03:52.751Z,88227.84
2023-05-22T11:04:52.899Z,87326.72
2023-05-22T11:05:53.042Z,87654.4
2023-05-22T11:06:53.196Z,89210.88
2023-05-22T11:07:53.346Z,87982.08
2023-05-22T11:08:53.519Z,88801.28
2023-05-22T11:09:53.679Z,86425.6
2023-05-22T11:10:53.884Z,84131.84
2023-05-22T11:11:54.034Z,86097.92
2023-05-22T11:12:54.165Z,86507.52
2023-05-22T11:13:54.317Z,85360.64
2023-05-22T11:14:54.457Z,86507.52
2023-05-22T11:15:54.593Z,82452.48
2023-05-22T11:16:54.752Z,84623.36
2023-05-22T11:17:54.869Z,82698.24
2023-05-22T11:18:55.306Z,84377.6
2023-05-22T11:20:55.721Z,87818.23
2023-05-22T11:21:55.441Z,87982.08
2023-05-22T11:22:55.595Z,85934.08
2023-05-22T11:23:55.727Z,86097.92
2023-05-22T11:24:55.887Z,83476.48
2023-05-22T11:25:56.021Z,86999.04
2023-05-22T11:26:56.183Z,85278.72
2023-05-22T11:27:56.479Z,86999.04
2023-05-22T11:28:56.508Z,89047.04
2023-05-22T11:29:56.638Z,91996.16
2023-05-22T11:30:56.763Z,89702.4
2023-05-22T11:31:56.840Z,87654.4
2023-05-22T11:32:57.025Z,90112
2023-05-22T11:33:57.139Z,94453.76
2023-05-22T11:34:57.300Z,94781.44
2023-05-22T11:35:57.470Z,98795.52
2023-05-22T11:36:57.602Z,98385.91
2023-05-22T11:37:57.703Z,95764.48
2023-05-22T11:38:57.826Z,98877.44
2023-05-22T11:39:57.975Z,96829.44
2023-05-22T11:40:58.103Z,90193.92
2023-05-22T11:41:58.279Z,89047.04
2023-05-22T11:42:58.428Z,86261.76
2023-05-22T11:43:58.581Z,82657.28
2023-05-22T11:44:58.744Z,77701.12
2023-05-22T11:45:58.882Z,73195.52
2023-05-22T11:46:59.021Z,74055.68
2023-05-22T11:47:59.231Z,76185.6
2023-05-22T11:48:59.333Z,82821.12
2023-05-22T11:49:59.431Z,82042.88
2023-05-22T11:50:59.538Z,77291.52
2023-05-22T11:51:59.703Z,79749.12
2023-05-22T11:52:59.815Z,79093.76
2023-05-22T11:53:59.993Z,78848
2023-05-22T11:55:00.124Z,77455.36
2023-05-22T11:56:00.279Z,79749.12
2023-05-22T11:57:00.434Z,80855.04
2023-05-22T11:58:00.590Z,91586.55
2023-05-22T11:59:00.730Z,96419.84
2023-05-22T12:00:00.936Z,95109.12
2023-05-22T12:01:01.044Z,92241.91
2023-05-22T12:02:01.166Z,92405.76
2023-05-22T12:03:01.339Z,92979.2
2023-05-22T12:04:01.397Z,94371.84
2023-05-22T12:05:01.445Z,94617.6
2023-05-22T12:06:01.621Z,94208
2023-05-22T12:07:01.782Z,96501.76
2023-05-22T12:08:01.904Z,96829.44
2023-05-22T12:09:02.074Z,96501.76
2023-05-22T12:10:02.213Z,98140.16
2023-05-22T12:11:02.373Z,97976.32
2023-05-22T12:12:02.529Z,98222.08
2023-05-22T12:13:02.668Z,97484.8
2023-05-22T12:14:02.805Z,93143.04
2023-05-22T12:15:02.900Z,86425.6
2023-05-22T12:16:03.062Z,88473.6
2023-05-22T12:17:03.212Z,79912.96
2023-05-22T12:18:03.300Z,81715.2
2023-05-22T12:19:03.448Z,85442.55
2023-05-22T12:20:03.583Z,88391.68
2023-05-22T12:21:03.736Z,84951.04
2023-05-22T12:22:03.885Z,85442.55
2023-05-22T12:23:04.020Z,80281.6